Time;durP1;ratioP1;P1;durP2;ratioP2;P2;SDS_P1;SDS_P2;PMS_P1;PMS_P2;Temp;Humidity;BMP_temperature;BMP_pressure;BME280_temperature;BME280_humidity;BME280_pressure;Samples;Min_cycle;Max_cycle;Signal;HPM_P1;HPM_P2
2024/04/17 00:06:30;;;;;;;8.33;5.87;;;;;;;17.73;100.00;98927.38;33527098;26;20524;-74
2024/04/17 00:21:33;;;;;;;13.70;6.10;;;;;;;17.64;100.00;98944.06;33568397;26;20008;-75
2024/04/17 00:36:35;;;;;;;14.13;7.50;;;;;;;17.70;100.00;98911.94;33583243;26;20022;-73
2024/04/17 00:51:39;;;;;;;13.73;5.97;;;;;;;17.19;100.00;98918.44;33523726;26;20539;-74
2024/04/17 01:06:42;;;;;;;11.70;6.17;;;;;;;17.01;100.00;98897.66;33490871;26;20000;-74
2024/04/17 01:21:45;;;;;;;15.50;7.30;;;;;;;16.88;100.00;98900.84;33569039;26;20649;-74
2024/04/17 01:36:47;;;;;;;14.87;6.00;;;;;;;16.90;100.00;98908.56;33541041;26;20455;-75
2024/04/17 01:51:49;;;;;;;15.30;6.40;;;;;;;16.75;100.00;98875.13;33534934;26;20014;-73
2024/04/17 02:06:51;;;;;;;12.60;6.40;;;;;;;16.64;100.00;98865.56;33563436;26;20016;-74
2024/04/17 02:21:54;;;;;;;19.07;7.40;;;;;;;16.64;100.00;98843.66;33546940;26;20012;-72
2024/04/17 02:36:56;;;;;;;13.53;6.57;;;;;;;16.19;100.00;98847.31;33559804;26;20010;-73
2024/04/17 02:51:58;;;;;;;11.67;6.13;;;;;;;16.32;100.00;98831.22;33583824;26;20015;-72
2024/04/17 03:07:00;;;;;;;13.83;6.13;;;;;;;16.49;100.00;98843.03;33563935;26;20003;-72
2024/04/17 03:22:03;;;;;;;10.40;5.73;;;;;;;16.78;100.00;98863.16;33507409;26;20000;-73
2024/04/17 03:37:05;;;;;;;10.83;4.83;;;;;;;16.86;100.00;98858.72;33512133;26;20058;-71
2024/04/17 03:52:07;;;;;;;9.10;5.17;;;;;;;17.10;100.00;98872.78;33480267;26;20420;-72
2024/04/17 04:07:10;;;;;;;9.70;6.30;;;;;;;17.34;100.00;98853.94;33567365;26;20077;-72
2024/04/17 04:22:12;;;;;;;13.67;6.27;;;;;;;17.81;100.00;98868.03;33600531;26;20102;-73
2024/04/17 04:37:14;;;;;;;10.57;5.27;;;;;;;18.24;100.00;98881.53;33528785;26;20008;-73
2024/04/17 04:52:17;;;;;;;8.73;4.97;;;;;;;19.12;100.00;98857.91;33517863;26;20004;-72
2024/04/17 05:07:19;;;;;;;9.95;4.90;;;;;;;19.26;100.00;98845.81;33489544;26;20005;-73
2024/04/17 05:22:22;;;;;;;8.03;5.27;;;;;;;19.93;100.00;98848.19;33533178;26;20015;-72
2024/04/17 05:37:24;;;;;;;9.60;4.32;;;;;;;20.23;100.00;98861.22;33556860;26;20004;-74
2024/04/17 05:52:27;;;;;;;8.88;3.95;;;;;;;20.75;100.00;98855.50;33563163;26;20011;-73
2024/04/17 06:07:30;;;;;;;7.05;3.85;;;;;;;20.88;100.00;98835.53;33540387;26;20373;-73
2024/04/17 06:22:33;;;;;;;7.40;3.43;;;;;;;21.31;100.00;98871.41;33537409;26;20008;-73
2024/04/17 06:37:35;;;;;;;5.28;2.53;;;;;;;21.78;100.00;98886.31;33503462;26;20004;-72
2024/04/17 06:52:38;;;;;;;6.15;2.95;;;;;;;23.01;87.92;98840.00;33555627;26;20003;-73
2024/04/17 07:07:40;;;;;;;4.43;2.60;;;;;;;23.71;78.46;98854.13;33474867;26;20019;-74
2024/04/17 07:22:43;;;;;;;8.23;2.17;;;;;;;25.17;67.92;98851.19;33494265;26;20031;-73
2024/04/17 07:37:46;;;;;;;5.90;2.13;;;;;;;26.59;59.08;98780.94;33549872;26;20014;-74
2024/04/17 07:52:50;;;;;;;4.53;2.00;;;;;;;26.81;53.32;98807.94;33600399;26;20008;-76
2024/04/17 08:07:53;;;;;;;6.47;2.80;;;;;;;27.81;50.27;98802.66;33572274;26;20452;-72
2024/04/17 08:22:56;;;;;;;8.93;2.40;;;;;;;27.47;50.34;98790.03;33534281;26;20461;-73
2024/04/17 08:37:58;;;;;;;9.55;2.10;;;;;;;28.85;48.07;98770.06;33554239;26;20348;-73
2024/04/17 08:53:04;;;;;;;5.45;1.90;;;;;;;29.71;44.19;98749.53;33536281;26;20007;-74
2024/04/17 09:08:08;;;;;;;9.60;2.53;;;;;;;29.87;41.67;98711.59;33551715;26;20018;-75
2024/04/17 09:23:10;;;;;;;4.13;2.28;;;;;;;30.42;39.53;98712.88;33529378;26;20474;-74
2024/04/17 09:38:17;;;;;;;4.93;2.20;;;;;;;30.71;39.14;98732.47;33544525;26;20417;-74
2024/04/17 09:53:21;;;;;;;4.55;2.25;;;;;;;30.26;37.67;98722.84;33537463;26;20011;-76
2024/04/17 10:08:37;;;;;;;5.75;1.70;;;;;;;29.08;36.20;98722.28;33384075;26;20004;-74
2024/04/17 10:23:40;;;;;;;5.55;2.95;;;;;;;28.15;38.15;98721.84;33377075;26;20012;-74
2024/04/17 10:38:43;;;;;;;3.60;1.52;;;;;;;29.68;34.96;98717.16;33288640;26;20339;-73
2024/04/17 10:53:48;;;;;;;3.33;1.33;;;;;;;28.63;35.56;98721.53;33358566;26;20004;-75
2024/04/17 11:08:52;;;;;;;12.10;3.55;;;;;;;27.78;37.87;98736.88;33249343;26;20123;-77
2024/04/17 11:24:02;;;;;;;9.85;3.33;;;;;;;28.95;39.88;98717.06;33318100;26;20468;-76
2024/04/17 11:39:05;;;;;;;13.55;4.53;;;;;;;29.85;38.82;98691.88;33301966;26;20514;-80
2024/04/17 11:54:07;;;;;;;8.88;3.47;;;;;;;29.45;40.48;98667.19;33353136;26;20012;-76
2024/04/17 12:09:10;;;;;;;9.32;3.30;;;;;;;28.52;41.36;98666.22;33587265;26;20467;-78
2024/04/17 12:57:07;;;;;;;6.80;2.33;;;;;;;28.75;39.36;98644.34;33569335;26;20027;-76
2024/04/17 13:12:09;;;;;;;8.90;2.95;;;;;;;28.50;38.62;98657.69;33623110;26;19999;-77
2024/04/17 13:27:12;;;;;;;7.50;4.03;;;;;;;28.19;39.92;98641.28;33462138;26;20022;-76
2024/04/17 13:42:14;;;;;;;7.25;2.92;;;;;;;28.32;41.09;98647.88;33536311;26;20084;-75
2024/04/17 13:57:17;;;;;;;9.35;3.38;;;;;;;28.04;42.20;98655.41;33572240;26;20011;-74
2024/04/17 14:12:19;;;;;;;9.60;4.38;;;;;;;27.24;44.64;98672.41;33563104;26;20335;-74
2024/04/17 14:27:22;;;;;;;10.55;3.70;;;;;;;27.14;46.27;98685.50;33534177;26;20471;-74
2024/04/17 14:42:24;;;;;;;;;;;;;;;26.86;48.56;98675.41;33505364;26;20004;-73
2024/04/17 14:57:26;;;;;;;6.97;2.72;;;;;;;26.31;49.19;98678.25;33533745;26;19925;-74
2024/04/17 15:12:29;;;;;;;;;;;;;;;26.22;47.82;98695.50;33502734;26;20354;-74
2024/04/17 15:27:31;;;;;;;8.07;3.33;;;;;;;25.72;47.98;98697.97;33490492;26;20369;-74
2024/04/17 15:42:34;;;;;;;12.98;4.18;;;;;;;25.46;48.91;98710.91;33562521;26;20092;-75
2024/04/17 15:57:49;;;;;;;10.10;3.50;;;;;;;24.86;51.17;98717.03;33591128;26;20463;-71
2024/04/17 16:12:51;;;;;;;5.97;2.42;;;;;;;24.59;52.08;98710.25;33467815;26;20028;-71
2024/04/17 16:27:54;;;;;;;7.63;2.30;;;;;;;24.29;53.05;98735.81;33582916;26;20417;-68
2024/04/17 16:42:56;;;;;;;11.33;3.10;;;;;;;23.87;54.39;98741.41;33567113;26;20069;-74
2024/04/17 16:57:59;;;;;;;10.90;6.57;;;;;;;23.95;53.76;98760.88;33504780;26;20016;-75
2024/04/17 17:13:01;;;;;;;8.83;4.20;;;;;;;23.72;54.09;98782.84;33514330;26;20000;-70
2024/04/17 17:28:04;;;;;;;7.43;4.10;;;;;;;23.14;55.61;98803.28;33557083;26;20049;-77
2024/04/17 17:43:06;;;;;;;13.03;4.57;;;;;;;22.79;57.82;98816.28;33545236;26;20019;-74
2024/04/17 17:58:09;;;;;;;12.50;6.50;;;;;;;22.44;61.27;98813.91;33546187;26;20014;-75
2024/04/17 18:13:11;;;;;;;11.93;4.05;;;;;;;21.99;64.55;98811.91;33591965;26;20069;-74
2024/04/17 18:28:13;;;;;;;8.73;3.20;;;;;;;21.75;67.90;98812.78;33442281;26;20027;-74
2024/04/17 18:43:16;;;;;;;47.92;12.52;;;;;;;21.51;70.96;98801.09;33476891;26;19997;-73
2024/04/17 18:58:18;;;;;;;8.70;2.38;;;;;;;21.42;74.06;98811.28;33607029;26;20000;-73
2024/04/17 19:13:22;;;;;;;13.90;3.45;;;;;;;21.20;77.09;98821.84;33521770;26;20377;-75
2024/04/17 19:28:26;;;;;;;11.17;3.40;;;;;;;21.02;81.23;98821.31;33584749;26;20003;-74
2024/04/17 19:43:29;;;;;;;8.02;2.67;;;;;;;20.79;84.22;98800.06;33614216;26;20018;-76
2024/04/17 19:58:34;;;;;;;7.20;2.73;;;;;;;21.26;81.12;98792.91;33585727;26;20078;-76
2024/04/17 20:13:41;;;;;;;2.53;2.00;;;;;;;20.92;83.07;98808.41;33554552;26;20023;-74
2024/04/17 20:28:44;;;;;;;5.25;1.92;;;;;;;21.14;79.72;98786.06;33583359;26;19999;-74
2024/04/17 20:43:58;;;;;;;10.10;2.80;;;;;;;20.79;81.55;98813.84;33531525;26;20522;-74
2024/04/17 20:59:02;;;;;;;5.60;2.75;;;;;;;20.83;85.97;98798.47;33495703;26;20003;-71
2024/04/17 21:14:04;;;;;;;;;;;;;;;20.83;88.32;98811.50;33614904;26;20003;-72
2024/04/17 21:29:07;;;;;;;4.20;2.17;;;;;;;20.53;88.95;98820.63;33485546;26;19940;-75
2024/04/17 21:44:09;;;;;;;6.75;2.30;;;;;;;20.51;89.61;98825.16;33551522;26;20041;-72
2024/04/17 21:59:13;;;;;;;7.63;2.50;;;;;;;21.00;84.86;98809.31;33610936;26;20824;-73
2024/04/17 22:14:17;;;;;;;8.50;2.63;;;;;;;20.45;86.97;98822.47;33533792;26;20081;-73
2024/04/17 22:29:19;;;;;;;6.20;2.47;;;;;;;20.31;89.21;98813.28;33508374;26;20355;-73
2024/04/17 22:44:21;;;;;;;8.13;2.65;;;;;;;20.00;95.03;98827.59;33403462;26;20023;-72
2024/04/17 22:59:26;;;;;;;10.85;2.50;;;;;;;20.00;99.86;98833.88;33558528;26;20366;-72
2024/04/17 23:14:28;;;;;;;9.40;2.23;;;;;;;19.76;100.00;98836.53;33530577;26;20007;-73
2024/04/17 23:29:30;;;;;;;4.35;2.40;;;;;;;19.61;100.00;98836.13;33479812;26;20011;-72
2024/04/17 23:44:33;;;;;;;6.00;1.88;;;;;;;19.61;100.00;98825.13;33574561;26;20076;-72
2024/04/17 23:59:37;;;;;;;6.60;2.60;;;;;;;19.71;100.00;98846.34;33451950;26;20032;-72
